Tümü
Kaniva Airport YKNV Hava Durumu
There is no TAF data available at YKNV or any nearby airports.
There is no METAR data available at YKNV. Showing METAR data for YNHL (23 mi D).
Yakın zamandaki YNHL METAR geçmişi (YKNV verisi yok)
| Date | Time (AEST) | Flight Rules | Wind Dir. | Speed | Type | Height AGL (ft) | Visibility | Temp (°C) | Temp (°F) | Dew Point (°C) | Dew Point (°F) | Rel. Humid. | Pressure | Density Altitude | Remarks |
|---|---|---|---|---|---|---|---|---|---|---|---|---|---|---|---|
| 04-May | 15:00 | n/a | 290° | 17 kt | Missing | 15° | 59° | 10° | 50° | 72% | 1011 mb | 519 ft | Thunderstorms | ||
| 04-May | 14:00 | n/a | 310° | 13 kt | Missing | 16° | 60° | 11° | 51° | 72% | 1010 mb | 669 ft | |||
| 04-May | 13:00 | n/a | 320° | 18 kt | Missing | 16° | 60° | 11° | 51° | 72% | 1010 mb | 669 ft | |||
| 04-May | 12:00 | n/a | 310° | 15 kt | Missing | 16° | 60° | 11° | 51° | 72% | 1011 mb | 639 ft | |||
| 04-May | 11:00 | n/a | 320° | 19 kt | Missing | 16° | 60° | 11° | 51° | 72% | 1011 mb | 639 ft | |||
| 04-May | 10:00 | n/a | 330° | 19 kt | Missing | 14° | 57° | 11° | 51° | 82% | 1010 mb | 429 ft | |||
| 04-May | 09:00 | n/a | 340° | 14 kt | Missing | 13° | 55° | 10° | 50° | 82% | 1010 mb | 309 ft | |||
| 04-May | 08:00 | n/a | 350° | 11 kt | Missing | 11° | 51° | 9° | 48° | 87% | 1010 mb | 69 ft | |||
| 04-May | 07:00 | n/a | 360° | 10 kt | Missing | 11° | 51° | 9° | 48° | 87% | 1010 mb | 69 ft | |||
| 04-May | 06:00 | n/a | 350° | 9 kt | Missing | 11° | 51° | 9° | 48° | 87% | 1010 mb | 69 ft | |||
| 04-May | 05:00 | n/a | 350° | 10 kt | Missing | 11° | 51° | 9° | 48° | 87% | 1009 mb | 98 ft | |||
| 04-May | 04:00 | n/a | 350° | 9 kt | Missing | 12° | 53° | 9° | 48° | 82% | 1009 mb | 218 ft | |||
| 04-May | 03:00 | n/a | 350° | 9 kt | Missing | 12° | 53° | 9° | 48° | 82% | 1010 mb | 189 ft | |||
| 04-May | 02:00 | n/a | 350° | 9 kt | Missing | 12° | 53° | 9° | 48° | 82% | 1010 mb | 189 ft | |||
| 04-May | 01:00 | n/a | 360° | 8 kt | Missing | 12° | 53° | 8° | 46° | 76% | 1010 mb | 189 ft | |||
| 04-May | 00:00 | n/a | 360° | 7 kt | Missing | 12° | 53° | 8° | 46° | 76% | 1011 mb | 159 ft | |||
| 03-May | 23:00 | n/a | 350° | 9 kt | Missing | 13° | 55° | 9° | 48° | 77% | 1011 mb | 279 ft | |||
| 03-May | 22:00 | n/a | 350° | 9 kt | Missing | 13° | 55° | 8° | 46° | 72% | 1012 mb | 250 ft | |||
| 03-May | 21:00 | n/a | 350° | 8 kt | Missing | 14° | 57° | 8° | 46° | 67% | 1012 mb | 370 ft | |||
| 03-May | 20:00 | n/a | 360° | 7 kt | Missing | 14° | 57° | 8° | 46° | 67% | 1012 mb | 370 ft | |||
| 03-May | 19:00 | n/a | 360° | 7 kt | Missing | 15° | 59° | 8° | 46° | 63% | 1011 mb | 519 ft | |||
| 03-May | 18:00 | n/a | 340° | 9 kt | Missing | 16° | 60° | 8° | 46° | 59% | 1011 mb | 639 ft | |||
| 03-May | 17:00 | n/a | 350° | 10 kt | Missing | 16° | 60° | 7° | 44° | 55% | 1010 mb | 669 ft | |||
| 03-May | 16:00 | n/a | 330° | 15 kt | Missing | 17° | 62° | 7° | 44° | 52% | 1010 mb | 789 ft |
Giriş
| Tarayıcınız desteklenmiyor. tarayıcınızı yükseltin |
